Time;durP1;ratioP1;P1;durP2;ratioP2;P2;SDS_P1;SDS_P2;PMS_P1;PMS_P2;Temp;Humidity;BMP_temperature;BMP_pressure;BME280_temperature;BME280_humidity;BME280_pressure;Samples;Min_cycle;Max_cycle;Signal;HPM_P1;HPM_P2
2021/09/01 00:01:58;;;;;;;;;18.50;14.00;;;;;23.76;45.91;102276.41;5095378;27;51214;-52
2021/09/01 00:04:23;;;;;;;;;15.50;12.25;;;;;23.73;45.79;102265.72;5092532;27;51053;-54
2021/09/01 00:06:49;;;;;;;;;15.25;15.25;;;;;23.75;46.12;102268.28;5093480;27;51157;-53
2021/09/01 00:09:14;;;;;;;;;12.25;11.25;;;;;23.73;45.85;102268.50;5080845;27;51094;-54
2021/09/01 00:11:39;;;;;;;;;14.50;14.25;;;;;23.72;46.00;102277.03;5078685;27;51066;-55
2021/09/01 00:14:05;;;;;;;;;14.50;12.50;;;;;23.70;45.92;102266.16;5075977;27;51158;-55
2021/09/01 00:16:31;;;;;;;;;12.75;11.25;;;;;23.70;46.19;102276.38;5060740;27;51168;-55
2021/09/01 00:18:59;;;;;;;;;11.75;10.50;;;;;23.70;45.75;102276.38;5093993;27;51639;-52
2021/09/01 00:21:25;;;;;;;;;13.00;12.50;;;;;23.69;45.78;102275.53;5095584;27;51074;-54
2021/09/01 00:23:51;;;;;;;;;17.25;13.50;;;;;23.68;45.83;102270.22;5093190;27;51477;-53
2021/09/01 00:26:18;;;;;;;;;13.00;12.00;;;;;23.67;45.91;102271.28;5095285;27;51204;-52
2021/09/01 00:28:44;;;;;;;;;14.25;12.00;;;;;23.66;45.79;102277.88;5095571;27;51040;-53
2021/09/01 00:31:09;;;;;;;;;13.50;11.50;;;;;23.65;45.79;102273.38;5077556;27;51275;-53
2021/09/01 00:33:35;;;;;;;;;15.00;11.50;;;;;23.64;45.80;102278.06;5075559;27;51228;-53
2021/09/01 00:36:00;;;;;;;;;14.00;12.00;;;;;23.65;46.27;102270.59;5086621;27;51106;-51
2021/09/01 00:38:25;;;;;;;;;13.25;12.25;;;;;23.64;46.09;102272.53;5082131;27;51663;-52
2021/09/01 00:40:55;;;;;;;;;15.25;11.75;;;;;23.64;46.43;102274.44;5091709;27;51083;-51
2021/09/01 00:43:24;;;;;;;;;12.25;11.50;;;;;23.62;46.29;102269.13;5089164;27;52275;-51
2021/09/01 00:45:50;;;;;;;;;13.00;10.00;;;;;23.63;46.50;102270.81;5075739;27;51249;-54
2021/09/01 00:48:17;;;;;;;;;13.50;12.50;;;;;23.62;46.22;102266.34;5075385;27;51089;-52
2021/09/01 00:50:43;;;;;;;;;13.25;10.50;;;;;23.63;46.17;102272.75;5082899;27;51068;-55
2021/09/01 00:53:10;;;;;;;;;12.25;12.25;;;;;23.60;46.00;102277.63;5095131;27;51971;-55
2021/09/01 00:55:36;;;;;;;;;15.00;11.50;;;;;23.60;46.51;102272.09;5095003;27;51078;-54
2021/09/01 00:58:01;;;;;;;;;14.00;12.75;;;;;23.59;46.41;102273.16;5094819;27;51109;-54
2021/09/01 01:00:37;;;;;;;;;18.00;13.25;;;;;23.59;46.64;102273.16;5091171;27;51377;-52
2021/09/01 01:03:03;;;;;;;;;12.00;12.00;;;;;23.58;46.04;102268.69;5092694;27;51259;-56
2021/09/01 01:05:28;;;;;;;;;16.75;12.00;;;;;23.57;46.36;102272.50;5094725;27;51123;-54
2021/09/01 01:07:53;;;;;;;;;13.00;12.75;;;;;23.57;46.64;102266.13;5093159;27;51064;-55
2021/09/01 01:10:19;;;;;;;;;10.25;9.50;;;;;23.56;46.28;102273.56;5094334;27;51011;-56
2021/09/01 01:12:44;;;;;;;;;11.25;11.25;;;;;23.56;46.86;102276.31;5089892;27;51047;-54
2021/09/01 01:15:10;;;;;;;;;12.75;11.75;;;;;23.54;46.52;102264.59;5066610;27;51057;-54
2021/09/01 01:17:36;;;;;;;;;14.00;12.00;;;;;23.54;46.04;102277.56;5080136;27;51070;-55
2021/09/01 01:20:02;;;;;;;;;13.25;12.25;;;;;23.53;46.28;102273.09;5076686;27;51284;-54
2021/09/01 01:22:27;;;;;;;;;13.75;12.00;;;;;23.51;46.63;102267.78;5090729;27;51853;-56
2021/09/01 01:25:01;;;;;;;;;14.25;12.25;;;;;23.52;46.42;102268.63;5078745;27;51103;-53
2021/09/01 01:27:32;;;;;;;;;14.50;10.25;;;;;23.51;46.36;102262.25;5081315;27;51139;-55
2021/09/01 01:30:06;;;;;;;;;12.00;9.50;;;;;23.50;46.42;102265.22;5076389;27;51334;-55
2021/09/01 01:32:32;;;;;;;;;11.00;11.00;;;;;23.49;46.58;102258.84;5081150;27;51071;-57
2021/09/01 01:34:57;;;;;;;;;14.00;10.25;;;;;23.49;46.65;102263.53;5076002;27;51200;-56
2021/09/01 01:37:22;;;;;;;;;14.50;11.00;;;;;23.47;46.22;102258.22;5080363;27;51330;-61
2021/09/01 01:39:48;;;;;;;;;13.75;11.25;;;;;23.48;46.61;102257.16;5087849;27;51184;-57
2021/09/01 01:42:13;;;;;;;;;15.00;11.00;;;;;23.47;46.89;102260.13;5074723;27;52748;-56
2021/09/01 01:44:38;;;;;;;;;15.50;12.50;;;;;23.46;46.71;102259.28;5085468;27;51130;-57
2021/09/01 01:47:04;;;;;;;;;14.00;13.50;;;;;23.45;46.35;102265.03;5093335;27;51306;-57
2021/09/01 01:49:31;;;;;;;;;15.25;12.25;;;;;23.43;46.97;102270.72;5058442;27;51312;-57
2021/09/01 01:51:56;;;;;;;;;16.50;12.25;;;;;23.43;46.74;102276.25;5063119;27;51836;-59
2021/09/01 01:54:21;;;;;;;;;11.50;11.50;;;;;23.43;46.49;102270.72;5097670;27;51047;-54
2021/09/01 01:56:47;;;;;;;;;13.00;10.00;;;;;23.42;46.28;102263.50;5098238;27;51177;-56
2021/09/01 01:59:12;;;;;;;;;16.75;12.25;;;;;23.43;46.84;102264.34;5082590;27;51307;-55
2021/09/01 02:01:37;;;;;;;;;11.50;10.00;;;;;23.43;46.75;102265.19;5078145;27;54969;-54
2021/09/01 02:04:03;;;;;;;;;11.50;9.25;;;;;23.42;46.59;102265.41;5088813;27;51134;-53
2021/09/01 02:06:28;;;;;;;;;17.75;13.50;;;;;23.43;46.63;102269.88;5096880;27;50899;-53
2021/09/01 02:08:54;;;;;;;;;16.50;13.75;;;;;23.40;46.56;102260.09;5096110;27;51118;-53
2021/09/01 02:11:19;;;;;;;;;15.75;12.75;;;;;23.39;46.77;102272.22;5097217;27;58910;-54
2021/09/01 02:13:44;;;;;;;;;18.25;12.75;;;;;23.39;46.72;102265.84;5093656;27;51070;-53
2021/09/01 02:16:10;;;;;;;;;18.00;13.25;;;;;23.38;46.46;102272.44;5044727;27;51211;-52
2021/09/01 02:18:35;;;;;;;;;18.75;14.00;;;;;23.38;46.47;102277.97;5080007;27;52454;-56
2021/09/01 02:21:00;;;;;;;;;12.75;11.75;;;;;23.37;46.65;102274.34;5077683;27;54375;-54
2021/09/01 02:23:26;;;;;;;;;15.25;13.50;;;;;23.35;46.36;102270.09;5059845;28;50969;-56
2021/09/01 02:25:51;;;;;;;;;12.75;12.00;;;;;23.35;46.86;102273.72;5094879;27;51207;-54
2021/09/01 02:28:17;;;;;;;;;12.75;12.50;;;;;23.33;46.35;102284.94;5097135;27;51100;-56
2021/09/01 02:30:42;;;;;;;;;17.00;13.00;;;;;23.33;46.42;102286.88;5094130;27;52218;-54
2021/09/01 02:33:07;;;;;;;;;17.25;14.25;;;;;23.31;46.67;102287.06;5077678;27;51230;-54
2021/09/01 02:35:33;;;;;;;;;14.50;13.00;;;;;23.31;46.86;102286.22;5096635;27;51462;-55
2021/09/01 02:37:58;;;;;;;;;14.25;12.50;;;;;23.29;46.52;102275.38;5088599;27;51395;-55
2021/09/01 02:40:24;;;;;;;;;18.50;13.75;;;;;23.28;47.03;102273.69;5077568;27;51050;-54
2021/09/01 02:42:49;;;;;;;;;17.75;14.75;;;;;23.27;46.61;102276.66;5080042;27;51096;-56
2021/09/01 02:45:17;;;;;;;;;14.25;14.25;;;;;23.26;46.69;102275.78;5095064;27;51287;-56
2021/09/01 02:47:44;;;;;;;;;18.75;15.75;;;;;23.25;46.75;102287.91;5077759;27;50934;-56
2021/09/01 02:50:10;;;;;;;;;18.00;15.00;;;;;23.25;46.82;102278.78;5077402;27;52887;-56
2021/09/01 02:52:35;;;;;;;;;14.00;13.00;;;;;23.23;47.16;102283.63;5077156;27;51232;-54
2021/09/01 02:55:01;;;;;;;;;16.50;12.50;;;;;23.22;46.81;102284.69;5089281;27;51088;-56
2021/09/01 02:57:26;;;;;;;;;15.75;14.00;;;;;23.21;46.45;102280.22;5096584;27;51222;-57
2021/09/01 02:59:51;;;;;;;;;14.75;14.00;;;;;23.21;46.84;102285.75;5076972;27;51851;-57
2021/09/01 03:02:17;;;;;;;;;18.75;14.75;;;;;23.19;46.91;102288.72;5084246;27;51096;-56
2021/09/01 03:04:42;;;;;;;;;13.50;13.50;;;;;23.20;46.89;102289.59;5087230;27;51041;-57
2021/09/01 03:07:07;;;;;;;;;15.50;15.00;;;;;23.18;46.91;102283.41;5085865;27;51008;-57
2021/09/01 03:09:33;;;;;;;;;15.50;14.25;;;;;23.18;46.76;102288.94;5096627;27;51078;-54
2021/09/01 03:11:58;;;;;;;;;17.00;14.50;;;;;23.16;46.78;102286.38;5084706;27;51123;-56
2021/09/01 03:14:24;;;;;;;;;16.50;16.00;;;;;23.16;47.17;102280.00;5083624;27;51227;-57
2021/09/01 03:16:49;;;;;;;;;14.25;12.00;;;;;23.15;47.20;102284.69;5088446;27;52278;-52
2021/09/01 03:19:14;;;;;;;;;17.75;16.00;;;;;23.15;46.93;102284.69;5095408;27;51073;-57
2021/09/01 03:21:40;;;;;;;;;18.75;16.50;;;;;23.14;47.19;102284.91;5082423;27;53983;-57
2021/09/01 03:24:05;;;;;;;;;16.25;13.25;;;;;23.13;46.87;102283.16;5087057;27;51134;-56
2021/09/01 03:26:32;;;;;;;;;18.50;14.00;;;;;23.12;46.96;102276.78;5079433;27;51081;-58
2021/09/01 03:28:58;;;;;;;;;19.50;16.50;;;;;23.11;47.12;102283.38;5076459;27;52610;-54
2021/09/01 03:31:24;;;;;;;;;16.50;14.50;;;;;23.10;46.61;102281.66;5076720;27;51077;-55
2021/09/01 03:33:49;;;;;;;;;17.50;14.25;;;;;23.10;46.76;102280.81;5065376;28;51260;-56
2021/09/01 03:36:14;;;;;;;;;20.75;16.25;;;;;;;;5080481;27;51432;-55
2021/09/01 03:38:39;;;;;;;;;21.50;15.50;;;;;23.10;46.67;102267.00;5081730;27;53140;-56
2021/09/01 03:41:05;;;;;;;;;16.00;13.25;;;;;23.07;46.67;102271.03;5065847;27;51137;-56
2021/09/01 03:43:30;;;;;;;;;19.00;15.00;;;;;23.06;47.22;102269.34;5088372;27;51055;-55
2021/09/01 03:45:56;;;;;;;;;18.00;16.00;;;;;23.06;47.08;102276.78;5081329;27;51247;-55
2021/09/01 03:48:22;;;;;;;;;14.25;13.75;;;;;23.05;47.22;102275.91;5080947;27;52185;-56
2021/09/01 03:50:48;;;;;;;;;20.50;16.00;;;;;23.05;46.55;102284.22;5076419;27;50983;-56
2021/09/01 03:53:13;;;;;;;;;20.50;15.25;;;;;23.03;46.89;102281.66;5077610;27;51087;-55
2021/09/01 03:55:39;;;;;;;;;13.00;13.00;;;;;23.03;46.56;102289.06;5076577;27;51281;-56
2021/09/01 03:58:04;;;;;;;;;13.25;11.75;;;;;23.01;47.01;102286.50;5080627;27;51037;-54
2021/09/01 04:00:30;;;;;;;;;13.75;12.00;;;;;23.00;46.64;102282.03;5087780;27;51033;-56
2021/09/01 04:02:55;;;;;;;;;19.75;14.50;;;;;23.00;47.21;102286.72;5093894;27;51191;-56
2021/09/01 04:05:21;;;;;;;;;16.00;14.00;;;;;22.99;46.87;102285.88;5076851;27;51359;-55
2021/09/01 04:07:46;;;;;;;;;18.75;15.50;;;;;22.98;47.14;102284.16;5086502;27;51878;-54
2021/09/01 04:10:11;;;;;;;;;13.50;13.50;;;;;22.98;46.77;102286.94;5095873;27;51122;-56
2021/09/01 04:12:37;;;;;;;;;18.50;15.00;;;;;22.97;47.07;102281.63;5089406;27;51323;-53
2021/09/01 04:15:04;;;;;;;;;11.50;11.25;;;;;22.95;46.85;102279.06;5085222;27;52332;-55
2021/09/01 04:17:30;;;;;;;;;14.50;12.75;;;;;22.95;46.96;102280.97;5090314;27;51099;-55
2021/09/01 04:19:55;;;;;;;;;11.75;11.75;;;;;22.94;46.62;102285.66;5095489;27;51234;-54
2021/09/01 04:22:20;;;;;;;;;14.50;11.25;;;;;22.93;47.09;102281.19;5094227;27;50944;-55
2021/09/01 04:24:45;;;;;;;;;17.00;15.50;;;;;22.93;47.01;102277.56;5091154;27;50909;-54
2021/09/01 04:27:11;;;;;;;;;14.75;13.50;;;;;22.92;46.54;102276.69;5086401;27;51422;-51
2021/09/01 04:29:36;;;;;;;;;14.25;11.25;;;;;22.92;46.97;102279.44;5084349;27;51192;-55
2021/09/01 04:32:02;;;;;;;;;15.00;13.50;;;;;22.89;46.46;102277.09;5077108;27;51293;-55
2021/09/01 04:34:27;;;;;;;;;17.00;14.75;;;;;22.91;46.51;102279.66;5075951;27;51008;-55
2021/09/01 04:36:52;;;;;;;;;14.00;14.00;;;;;22.90;46.87;102286.25;5079556;27;52555;-55
2021/09/01 04:39:18;;;;;;;;;16.00;16.00;;;;;22.88;46.67;102280.91;5081269;27;51203;-55
2021/09/01 04:41:43;;;;;;;;;14.00;13.50;;;;;22.88;46.90;102282.84;5086041;27;51492;-54
2021/09/01 04:44:08;;;;;;;;;17.50;14.75;;;;;22.88;46.89;102294.72;5082947;27;51410;-54
2021/09/01 04:46:34;;;;;;;;;18.50;16.00;;;;;22.87;46.48;102297.72;5073529;27;55359;-54
2021/09/01 04:48:59;;;;;;;;;13.00;12.00;;;;;22.86;47.07;102301.53;5091847;27;51354;-54
2021/09/01 04:51:24;;;;;;;;;14.75;13.00;;;;;22.86;47.08;102304.28;5084278;27;51347;-56
2021/09/01 04:53:50;;;;;;;;;13.00;12.50;;;;;22.85;47.10;102306.19;5075830;27;51110;-54
2021/09/01 04:56:15;;;;;;;;;13.25;13.25;;;;;22.84;46.62;102306.41;5075335;27;51724;-56
2021/09/01 04:58:40;;;;;;;;;15.25;14.00;;;;;22.84;47.14;102312.78;5080541;27;51139;-55
2021/09/01 05:01:06;;;;;;;;;15.25;13.25;;;;;22.82;46.62;102306.56;5080049;27;51524;-55
2021/09/01 05:03:32;;;;;;;;;18.25;16.75;;;;;22.82;46.80;102312.09;5094709;27;51160;-53
2021/09/01 05:05:57;;;;;;;;;15.50;14.50;;;;;22.81;46.48;102310.38;5057777;27;51041;-55
2021/09/01 05:08:22;;;;;;;;;18.00;14.00;;;;;22.80;46.67;102297.63;5093417;27;51179;-55
2021/09/01 05:10:47;;;;;;;;;14.25;13.25;;;;;22.80;46.74;102302.28;5094681;27;51105;-54
2021/09/01 05:13:13;;;;;;;;;16.75;16.75;;;;;22.79;46.99;102298.69;5086050;27;51053;-54
2021/09/01 05:15:39;;;;;;;;;16.50;15.75;;;;;22.78;46.97;102291.44;5078233;27;52052;-53
2021/09/01 05:18:04;;;;;;;;;16.75;16.25;;;;;22.77;47.26;102293.38;5075962;27;51372;-53
2021/09/01 05:20:35;;;;;;;;;12.00;10.75;;;;;22.75;46.61;102301.00;5075343;27;51020;-55
2021/09/01 05:23:03;;;;;;;;;18.00;16.25;;;;;22.77;46.83;102306.31;5075222;27;51060;-51
2021/09/01 05:25:34;;;;;;;;;16.50;12.50;;;;;22.74;46.68;102298.44;5080486;27;51448;-55
2021/09/01 05:27:59;;;;;;;;;14.50;12.75;;;;;22.74;46.85;102309.50;5092859;27;51106;-54
2021/09/01 05:30:26;;;;;;;;;20.50;16.25;;;;;22.74;47.01;102303.97;5097760;27;51156;-53
2021/09/01 05:32:55;;;;;;;;;15.25;14.50;;;;;22.72;47.14;102306.94;5084879;27;51145;-50
2021/09/01 05:35:21;;;;;;;;;16.00;14.75;;;;;22.72;47.03;102311.63;5094540;27;52110;-53
2021/09/01 05:37:46;;;;;;;;;16.50;14.50;;;;;22.71;46.84;102310.72;5090921;27;52568;-52
2021/09/01 05:40:12;;;;;;;;;16.25;12.75;;;;;22.70;47.25;102313.72;5087497;27;51771;-53
2021/09/01 05:42:39;;;;;;;;;14.75;14.00;;;;;22.69;46.60;102317.53;5090446;27;51296;-53
2021/09/01 05:45:06;;;;;;;;;17.25;15.00;;;;;22.70;46.96;102328.38;5085076;27;51972;-58
2021/09/01 05:47:32;;;;;;;;;13.00;12.50;;;;;22.69;46.97;102317.53;5096282;27;51149;-54
2021/09/01 05:49:58;;;;;;;;;15.75;12.00;;;;;22.70;47.01;102328.38;5091572;27;51147;-52
2021/09/01 05:52:27;;;;;;;;;12.75;10.25;;;;;22.69;46.86;102326.66;5096925;27;51098;-54
2021/09/01 05:54:55;;;;;;;;;14.00;12.75;;;;;22.70;47.39;102331.13;5090157;27;51760;-54
2021/09/01 05:57:38;;;;;;;;;16.75;15.00;;;;;22.71;46.76;102330.06;5084491;27;51240;-51
2021/09/01 06:00:08;;;;;;;;;18.25;13.50;;;;;22.71;47.17;102334.75;5092294;27;52282;-52
2021/09/01 06:02:42;;;;;;;;;13.00;13.00;;;;;22.71;47.00;102332.84;5085285;27;50982;-54
2021/09/01 06:05:09;;;;;;;;;17.25;12.00;;;;;22.70;46.97;102331.13;5084180;27;51056;-55
2021/09/01 06:07:39;;;;;;;;;16.50;15.25;;;;;22.71;47.24;102337.50;5089983;27;51001;-55
2021/09/01 06:10:05;;;;;;;;;14.75;13.50;;;;;22.71;46.92;102338.34;5091440;27;51187;-56
2021/09/01 06:12:31;;;;;;;;;13.25;11.00;;;;;22.70;47.35;102333.88;5086164;27;51272;-55
2021/09/01 06:14:56;;;;;;;;;14.00;12.50;;;;;22.71;47.23;102335.59;5092921;27;51742;-55
2021/09/01 06:17:22;;;;;;;;;14.75;12.00;;;;;22.72;47.29;102334.56;5089775;27;51234;-52
2021/09/01 06:19:47;;;;;;;;;10.75;9.50;;;;;22.73;47.71;102330.75;5090147;27;51182;-54
2021/09/01 06:22:15;;;;;;;;;12.25;10.00;;;;;22.74;47.08;102332.44;5085742;27;51069;-54
2021/09/01 06:24:40;;;;;;;;;12.00;11.75;;;;;22.75;47.15;102322.25;5087237;27;51135;-53
2021/09/01 06:27:06;;;;;;;;;12.25;12.00;;;;;22.77;47.62;102322.91;5086199;27;50911;-53
2021/09/01 06:29:32;;;;;;;;;12.50;10.75;;;;;22.77;47.65;102326.50;5085327;27;51079;-53
2021/09/01 06:31:57;;;;;;;;;16.75;10.75;;;;;22.79;47.08;102325.47;5088942;27;50999;-52
2021/09/01 06:34:23;;;;;;;;;15.25;13.25;;;;;22.78;47.17;102319.09;5085685;27;51043;-53
2021/09/01 06:36:48;;;;;;;;;10.25;10.25;;;;;22.79;47.53;102323.53;5091989;27;51126;-53
2021/09/01 06:39:14;;;;;;;;;12.00;10.50;;;;;22.80;48.00;102313.34;5095598;27;51068;-54
2021/09/01 06:41:40;;;;;;;;;14.50;13.00;;;;;22.81;47.67;102321.44;5093146;27;51260;-55
2021/09/01 06:44:05;;;;;;;;;14.00;11.25;;;;;22.82;47.47;102314.00;5094419;27;51856;-54
2021/09/01 06:46:31;;;;;;;;;12.50;10.00;;;;;22.83;47.41;102318.50;5096252;27;51122;-57
2021/09/01 06:48:56;;;;;;;;;11.75;11.50;;;;;22.84;47.81;102317.47;5096309;27;52623;-53
2021/09/01 06:51:22;;;;;;;;;11.00;10.25;;;;;22.83;47.95;102311.06;5092767;27;51145;-52
2021/09/01 06:53:47;;;;;;;;;14.25;12.00;;;;;22.85;47.61;102310.88;5096926;27;50983;-53
2021/09/01 06:56:12;;;;;;;;;12.25;10.25;;;;;22.85;47.96;102313.63;5097574;27;51059;-53
2021/09/01 06:58:38;;;;;;;;;12.50;11.00;;;;;22.86;47.77;102318.97;5097279;27;51048;-52
2021/09/01 07:01:03;;;;;;;;;10.25;10.25;;;;;22.88;48.25;102324.28;5097887;27;51204;-52
2021/09/01 07:03:29;;;;;;;;;12.00;10.00;;;;;22.88;47.90;102319.59;5097628;27;52166;-55
2021/09/01 07:05:54;;;;;;;;;12.00;11.25;;;;;22.89;47.95;102323.22;5088126;27;51038;-52
2021/09/01 07:08:23;;;;;;;;;10.00;9.50;;;;;22.90;47.98;102320.25;5077039;28;51138;-52
2021/09/01 07:10:50;;;;;;;;;14.00;10.25;;;;;22.90;47.44;102320.25;5077024;28;51227;-52
2021/09/01 07:13:17;;;;;;;;;9.75;9.75;;;;;22.91;47.96;102315.56;5077343;28;51018;-53
2021/09/01 07:15:42;;;;;;;;;11.75;11.75;;;;;22.91;47.94;102321.09;5077179;28;51273;-52
2021/09/01 07:18:08;;;;;;;;;10.25;8.25;;;;;22.91;47.71;102310.91;5058437;28;51160;-52
2021/09/01 07:20:34;;;;;;;;;10.25;9.25;;;;;22.92;47.59;102308.97;5077171;28;51220;-53
2021/09/01 07:22:59;;;;;;;;;10.75;10.25;;;;;22.92;47.59;102306.22;5076546;28;51011;-51
2021/09/01 07:25:24;;;;;;;;;10.25;8.25;;;;;22.91;47.81;102305.38;5060452;27;51166;-55
2021/09/01 07:27:50;;;;;;;;;10.50;10.00;;;;;22.92;47.65;102301.53;5080008;27;50974;-52
2021/09/01 07:30:15;;;;;;;;;14.75;11.50;;;;;22.93;47.43;102299.66;5077087;28;51310;-54
2021/09/01 07:32:40;;;;;;;;;14.00;12.00;;;;;22.92;47.11;102301.53;5076458;28;51797;-53
2021/09/01 07:35:06;;;;;;;;;12.75;10.75;;;;;22.93;47.57;102299.66;5076457;28;50954;-52
2021/09/01 07:37:32;;;;;;;;;17.50;14.00;;;;;22.93;47.16;102303.28;5076396;28;51235;-52
2021/09/01 07:39:57;;;;;;;;;11.25;11.25;;;;;22.95;47.41;102301.16;5076333;28;51061;-52
2021/09/01 07:42:23;;;;;;;;;13.50;11.00;;;;;22.96;47.47;102302.88;5077809;27;51136;-54
2021/09/01 07:44:48;;;;;;;;;10.75;9.50;;;;;22.97;47.06;102299.03;5082750;27;51090;-53
2021/09/01 07:47:14;;;;;;;;;11.00;9.50;;;;;22.97;46.94;102307.34;5096645;27;51131;-53
2021/09/01 07:49:39;;;;;;;;;10.25;9.75;;;;;22.98;47.42;102299.91;5096330;27;51178;-55
2021/09/01 07:52:05;;;;;;;;;11.75;10.00;;;;;22.98;47.46;102303.50;5096134;27;51006;-53
2021/09/01 07:54:30;;;;;;;;;11.25;8.50;;;;;23.00;47.37;102306.91;5096857;27;51012;-53
2021/09/01 07:56:55;;;;;;;;;11.25;10.00;;;;;23.02;46.80;102303.94;5096805;27;51255;-53
2021/09/01 07:59:21;;;;;;;;;11.50;10.50;;;;;23.01;47.26;102305.84;5087461;27;51111;-52
2021/09/01 08:01:46;;;;;;;;;12.00;11.00;;;;;23.03;46.83;102316.69;5095961;27;51781;-53
2021/09/01 08:04:11;;;;;;;;;10.00;10.00;;;;;23.03;47.02;102316.69;5096659;27;51062;-52
2021/09/01 08:06:37;;;;;;;;;14.75;12.25;;;;;23.04;47.19;102299.94;5096596;27;51025;-54
2021/09/01 08:09:02;;;;;;;;;13.50;11.00;;;;;23.07;46.68;102304.19;5087171;27;51099;-53
2021/09/01 08:11:29;;;;;;;;;11.00;9.25;;;;;23.06;46.72;102301.66;5094052;27;51967;-53
2021/09/01 08:13:55;;;;;;;;;13.50;10.75;;;;;23.07;47.14;102297.81;5076234;28;51094;-54
2021/09/01 08:16:20;;;;;;;;;11.50;11.50;;;;;23.08;46.99;102302.28;5075922;28;51054;-53
2021/09/01 08:18:45;;;;;;;;;11.50;9.50;;;;;23.10;46.73;102306.53;5075953;28;51293;-57
2021/09/01 08:21:11;;;;;;;;;10.00;9.00;;;;;23.14;46.66;102307.84;5075497;28;52232;-53
2021/09/01 08:23:36;;;;;;;;;13.25;11.50;;;;;23.17;46.94;102304.69;5075706;28;51112;-52
2021/09/01 08:26:02;;;;;;;;;12.50;10.25;;;;;23.20;47.16;102306.16;5077425;27;51323;-53
2021/09/01 08:28:27;;;;;;;;;14.25;11.00;;;;;23.23;47.19;102305.75;5095509;27;51020;-54
2021/09/01 08:30:53;;;;;;;;;9.00;7.25;;;;;23.25;47.24;102301.75;5096117;27;51365;-56
2021/09/01 08:33:18;;;;;;;;;10.75;10.75;;;;;23.30;46.58;102307.50;5093047;27;51044;-55
2021/09/01 08:35:43;;;;;;;;;12.25;10.75;;;;;23.34;46.73;102302.38;5093410;27;51161;-54
2021/09/01 08:38:09;;;;;;;;;10.75;10.00;;;;;23.39;46.55;102308.16;5092860;27;51193;-54
2021/09/01 08:40:34;;;;;;;;;11.50;11.50;;;;;23.43;47.01;102306.69;5090459;27;51648;-55
2021/09/01 08:43:00;;;;;;;;;13.50;13.50;;;;;23.45;46.89;102307.34;5094886;27;51117;-55
2021/09/01 08:45:26;;;;;;;;;13.50;13.00;;;;;23.47;46.57;102305.22;5083521;27;52001;-54
2021/09/01 08:47:54;;;;;;;;;17.50;14.25;;;;;23.48;46.84;102298.63;5089309;27;51293;-54
2021/09/01 08:50:20;;;;;;;;;18.50;14.00;;;;;23.49;46.49;102303.09;5090112;27;51255;-54
2021/09/01 08:52:45;;;;;;;;;17.75;13.75;;;;;23.50;46.39;102310.34;5091805;27;51240;-58
2021/09/01 08:55:12;;;;;;;;;17.00;14.25;;;;;23.50;46.61;102312.25;5095001;27;51059;-55
2021/09/01 08:57:38;;;;;;;;;21.25;13.75;;;;;23.50;46.53;102313.09;5091957;27;51247;-52
2021/09/01 09:00:05;;;;;;;;;16.75;16.75;;;;;23.50;46.45;102315.00;5091882;27;51997;-55
2021/09/01 09:02:31;;;;;;;;;17.75;14.50;;;;;23.50;46.55;102317.78;5098637;27;51087;-55
2021/09/01 09:04:57;;;;;;;;;11.75;11.75;;;;;23.50;46.38;102324.16;5091904;27;51929;-55
2021/09/01 09:07:23;;;;;;;;;12.25;12.25;;;;;23.50;46.13;102318.63;5096518;27;51030;-54
2021/09/01 09:09:50;;;;;;;;;19.50;16.50;;;;;23.51;46.36;102311.19;5094823;27;51084;-54
2021/09/01 09:12:16;;;;;;;;;16.75;13.75;;;;;23.51;46.52;102309.28;5093789;27;51238;-54
2021/09/01 09:14:49;;;;;;;;;21.00;15.00;;;;;23.54;46.08;102305.22;5092030;27;51087;-54
2021/09/01 09:17:19;;;;;;;;;15.50;15.25;;;;;23.56;46.06;102297.59;5094061;27;51051;-55
2021/09/01 09:19:55;;;;;;;;;15.25;13.75;;;;;23.57;46.11;102297.38;5096130;27;51923;-53
2021/09/01 09:22:27;;;;;;;;;23.00;19.00;;;;;23.60;46.42;102298.91;5092846;27;51396;-53
2021/09/01 09:25:06;;;;;;;;;16.75;16.50;;;;;23.64;46.06;102300.19;5095960;27;51313;-53
2021/09/01 09:27:59;;;;;;;;;19.50;15.25;;;;;23.67;46.01;102304.47;5096729;27;51147;-53
2021/09/01 09:30:31;;;;;;;;;14.25;13.25;;;;;23.71;45.99;102309.38;5087697;27;51039;-53
2021/09/01 09:33:15;;;;;;;;;20.00;16.75;;;;;23.75;46.20;102307.88;5094452;27;51344;-54
2021/09/01 09:35:57;;;;;;;;;18.75;15.00;;;;;23.77;45.94;102303.00;5098534;27;51343;-55
2021/09/01 09:38:45;;;;;;;;;13.50;13.25;;;;;23.79;45.72;102294.50;5095832;27;51158;-52
2021/09/01 09:41:23;;;;;;;;;15.25;15.25;;;;;23.79;45.88;102295.34;5090670;27;51839;-54
2021/09/01 09:43:50;;;;;;;;;15.75;12.50;;;;;23.81;46.15;102295.97;5095108;27;51680;-52
2021/09/01 09:46:16;;;;;;;;;14.75;14.00;;;;;23.83;46.17;102298.53;5091508;27;51236;-50
2021/09/01 09:48:44;;;;;;;;;18.75;15.00;;;;;23.85;45.90;102296.41;5093924;27;51612;-50
2021/09/01 09:51:12;;;;;;;;;11.75;11.75;;;;;23.86;46.09;102295.34;5093904;27;51160;-54
2021/09/01 09:53:45;;;;;;;;;16.00;13.25;;;;;23.87;46.00;102310.91;5092755;27;51282;-54
2021/09/01 09:56:25;;;;;;;;;13.00;13.00;;;;;23.88;46.09;102296.00;5095881;27;51072;-55
2021/09/01 09:58:53;;;;;;;;;16.00;14.25;;;;;23.89;45.40;102300.47;5093051;27;51331;-51
2021/09/01 10:01:20;;;;;;;;;16.75;13.75;;;;;23.89;45.62;102309.63;5096180;27;50974;-53
2021/09/01 10:03:47;;;;;;;;;17.50;14.25;;;;;23.91;45.46;102306.66;5096836;27;51057;-56
2021/09/01 10:06:16;;;;;;;;;15.00;14.25;;;;;23.93;45.73;102298.97;5098842;27;51138;-53
2021/09/01 10:08:42;;;;;;;;;13.00;13.00;;;;;23.96;45.27;102306.00;5097462;27;51091;-54
2021/09/01 10:11:10;;;;;;;;;15.50;12.75;;;;;23.99;45.62;102303.69;5096823;27;52132;-53
2021/09/01 10:13:39;;;;;;;;;15.00;14.00;;;;;23.99;45.54;102286.22;5097585;27;51241;-57
2021/09/01 10:16:20;;;;;;;;;16.00;16.00;;;;;24.00;45.97;102286.00;5096765;27;51117;-54
2021/09/01 10:19:13;;;;;;;;;20.50;13.25;;;;;24.02;45.76;102280.25;5096472;27;51472;-55
2021/09/01 10:21:42;;;;;;;;;12.50;11.75;;;;;24.04;45.89;102289.19;5079755;27;52330;-55
2021/09/01 10:24:35;;;;;;;;;13.50;12.00;;;;;24.06;45.74;102284.28;5076537;27;51350;-53
2021/09/01 10:27:02;;;;;;;;;13.50;12.25;;;;;24.10;45.60;102291.97;5093744;27;51248;-55
2021/09/01 10:29:43;;;;;;;;;15.75;13.00;;;;;24.11;45.32;102288.16;5092518;27;51827;-55
2021/09/01 10:32:19;;;;;;;;;14.50;12.75;;;;;24.14;45.87;102296.00;5092532;27;51845;-51
2021/09/01 10:34:45;;;;;;;;;16.50;13.00;;;;;24.15;45.74;102285.78;5088673;27;51111;-54
2021/09/01 10:37:46;;;;;;;;;16.75;13.50;;;;;24.17;45.44;102283.66;5091352;27;50936;-51
2021/09/01 10:40:21;;;;;;;;;13.50;13.50;;;;;24.19;45.35;102276.88;5094516;27;51070;-50
2021/09/01 10:42:50;;;;;;;;;16.75;14.50;;;;;24.19;45.27;102274.09;5084646;27;52014;-55
2021/09/01 10:45:43;;;;;;;;;14.25;12.75;;;;;24.23;45.59;102259.81;5094047;27;51317;-54
2021/09/01 10:48:09;;;;;;;;;10.00;9.75;;;;;24.24;45.36;102264.28;5090557;27;51247;-51
2021/09/01 10:50:36;;;;;;;;;15.25;13.00;;;;;24.25;45.50;102258.53;5095464;27;51268;-56
2021/09/01 10:53:21;;;;;;;;;15.00;13.75;;;;;24.28;45.72;102265.56;5095319;27;52172;-53
2021/09/01 10:55:50;;;;;;;;;14.25;12.50;;;;;24.29;45.26;102261.75;5096278;27;51116;-55
2021/09/01 10:58:51;;;;;;;;;16.75;13.50;;;;;24.30;45.39;102256.00;5096851;27;51361;-55
2021/09/01 11:01:21;;;;;;;;;11.00;10.50;;;;;24.33;45.44;102252.81;5096495;27;51244;-54
2021/09/01 11:03:52;;;;;;;;;11.25;11.25;;;;;24.35;45.66;102258.13;5096076;27;51007;-55
2021/09/01 11:06:20;;;;;;;;;13.50;9.50;;;;;24.35;45.67;102252.59;5095236;27;51210;-53
2021/09/01 11:08:59;;;;;;;;;15.00;13.50;;;;;24.37;45.45;102251.31;5096771;27;51214;-54
2021/09/01 11:11:39;;;;;;;;;11.75;11.75;;;;;24.40;45.55;102238.97;5096869;27;51273;-54